Time;durP1;ratioP1;P1;durP2;ratioP2;P2;SDS_P1;SDS_P2;PMS_P1;PMS_P2;Temp;Humidity;BMP_temperature;BMP_pressure;BME280_temperature;BME280_humidity;BME280_pressure;Samples;Min_cycle;Max_cycle;Signal;HPM_P1;HPM_P2
2023/12/22 00:01:50;;;;;;;24.83;5.45;;;11.80;99.90;;;;;;4264692;27;20058;-64
2023/12/22 00:03:52;;;;;;;26.73;4.93;;;11.80;99.90;;;;;;4265089;27;20521;-64
2023/12/22 00:05:54;;;;;;;19.63;4.85;;;11.80;99.90;;;;;;4265152;27;20071;-64
2023/12/22 00:07:56;;;;;;;21.42;4.72;;;11.80;99.90;;;;;;4264736;27;20039;-64
2023/12/22 00:09:58;;;;;;;24.23;5.28;;;11.80;99.90;;;;;;4265249;27;20042;-65
2023/12/22 00:12:00;;;;;;;24.13;5.20;;;11.80;99.90;;;;;;4265227;27;20121;-64
2023/12/22 00:14:02;;;;;;;24.05;5.55;;;11.80;99.90;;;;;;4265211;27;20500;-65
2023/12/22 00:16:05;;;;;;;19.70;5.32;;;11.80;99.90;;;;;;4264987;27;20450;-65
2023/12/22 00:18:09;;;;;;;25.85;5.70;;;11.80;99.90;;;;;;4265145;27;20091;-64
2023/12/22 00:20:13;;;;;;;23.95;5.40;;;11.80;99.90;;;;;;4265167;27;20107;-64
2023/12/22 00:22:15;;;;;;;19.48;4.45;;;11.80;99.90;;;;;;4264814;27;20074;-67
2023/12/22 00:24:17;;;;;;;20.42;5.75;;;11.80;99.90;;;;;;4264610;27;20038;-64
2023/12/22 00:26:19;;;;;;;26.75;5.38;;;11.70;99.90;;;;;;4265088;27;20054;-64
2023/12/22 00:28:21;;;;;;;20.50;4.95;;;11.70;99.90;;;;;;4264867;27;20047;-64
2023/12/22 00:30:24;;;;;;;24.40;5.35;;;11.80;99.90;;;;;;4264316;27;20083;-64
2023/12/22 00:32:26;;;;;;;20.65;4.75;;;11.70;99.90;;;;;;4264555;27;20122;-64
2023/12/22 00:34:29;;;;;;;25.77;5.80;;;11.70;99.90;;;;;;4264676;27;20049;-64
2023/12/22 00:36:31;;;;;;;24.77;5.32;;;11.60;99.90;;;;;;4264526;27;20126;-64
2023/12/22 00:38:34;;;;;;;23.10;6.07;;;11.60;99.90;;;;;;4264882;27;20047;-64
2023/12/22 00:40:36;;;;;;;23.90;5.22;;;11.60;99.90;;;;;;4264499;27;20474;-66
2023/12/22 00:42:38;;;;;;;22.63;4.68;;;11.50;99.90;;;;;;4264789;27;20122;-64
2023/12/22 00:44:40;;;;;;;20.95;4.70;;;11.50;99.90;;;;;;4264426;27;20069;-65
2023/12/22 00:46:42;;;;;;;25.33;5.63;;;11.50;99.90;;;;;;4264649;27;20046;-64
2023/12/22 00:48:44;;;;;;;21.15;4.57;;;11.50;99.90;;;;;;4265010;27;20069;-65
2023/12/22 00:50:48;;;;;;;25.35;6.25;;;11.50;99.90;;;;;;4265391;27;20558;-65
2023/12/22 00:52:49;;;;;;;25.80;5.57;;;11.50;99.90;;;;;;4265032;27;20049;-64
2023/12/22 00:54:52;;;;;;;24.70;5.38;;;11.50;99.90;;;;;;4267847;27;20508;-64
2023/12/22 00:56:54;;;;;;;25.88;5.50;;;11.40;99.90;;;;;;4268541;27;20050;-68
2023/12/22 00:58:56;;;;;;;28.55;5.40;;;11.40;99.90;;;;;;4269684;27;20164;-70
2023/12/22 01:01:10;;;;;;;23.08;5.13;;;11.30;99.90;;;;;;4267891;27;20050;-65
2023/12/22 01:03:12;;;;;;;25.08;5.65;;;11.40;99.90;;;;;;4267558;27;20068;-64
2023/12/22 01:05:16;;;;;;;28.35;5.65;;;11.40;99.90;;;;;;4267367;27;20497;-65
2023/12/22 01:07:20;;;;;;;25.33;5.85;;;11.40;99.90;;;;;;4267430;27;20129;-65
2023/12/22 01:09:22;;;;;;;24.08;5.70;;;11.40;99.90;;;;;;4249224;27;20043;-65
2023/12/22 01:11:24;;;;;;;22.88;5.28;;;11.40;99.90;;;;;;4267486;27;20049;-64
2023/12/22 01:13:26;;;;;;;27.15;5.57;;;11.40;99.90;;;;;;4267346;27;20162;-64
2023/12/22 01:15:28;;;;;;;27.35;5.80;;;11.40;99.90;;;;;;4267347;27;20046;-65
2023/12/22 01:17:30;;;;;;;29.17;6.07;;;11.40;99.90;;;;;;4267493;27;20057;-65
2023/12/22 01:19:33;;;;;;;19.42;5.05;;;11.40;99.90;;;;;;4267574;27;20043;-65
2023/12/22 01:21:35;;;;;;;28.27;5.65;;;11.30;99.90;;;;;;4250199;27;20130;-65
2023/12/22 01:23:38;;;;;;;27.90;6.45;;;11.30;99.90;;;;;;4250115;27;20043;-64
2023/12/22 01:25:40;;;;;;;23.88;5.20;;;11.40;99.90;;;;;;4250276;27;20051;-64
2023/12/22 01:27:42;;;;;;;28.35;5.80;;;11.30;99.90;;;;;;4250272;27;20482;-64
2023/12/22 01:29:45;;;;;;;28.27;6.38;;;11.30;99.90;;;;;;4249548;27;20461;-65
2023/12/22 01:31:47;;;;;;;23.23;4.80;;;11.40;99.90;;;;;;4249955;27;20428;-64
2023/12/22 01:33:49;;;;;;;23.92;5.60;;;11.40;99.90;;;;;;4250138;27;20047;-64
2023/12/22 01:35:51;;;;;;;24.50;5.40;;;11.40;99.90;;;;;;4249787;27;20061;-64
2023/12/22 01:37:54;;;;;;;27.42;5.22;;;11.40;99.90;;;;;;4249924;27;20070;-65
2023/12/22 01:40:00;;;;;;;25.33;5.78;;;11.40;99.90;;;;;;4250700;27;20063;-72
2023/12/22 01:42:02;;;;;;;28.65;6.15;;;11.30;99.90;;;;;;4250956;27;20043;-68
2023/12/22 01:44:04;;;;;;;25.00;6.35;;;11.30;99.90;;;;;;4250766;27;20054;-64
2023/12/22 01:46:07;;;;;;;28.58;5.00;;;11.40;99.90;;;;;;4249922;27;20122;-64
2023/12/22 01:48:10;;;;;;;27.15;5.18;;;11.30;99.90;;;;;;4249606;27;20047;-65
2023/12/22 01:50:13;;;;;;;24.80;5.28;;;11.30;99.90;;;;;;4249724;27;20054;-64
2023/12/22 01:52:18;;;;;;;23.08;5.25;;;11.40;99.90;;;;;;4249626;27;20401;-65
2023/12/22 01:54:21;;;;;;;23.60;5.20;;;11.40;99.90;;;;;;4249740;27;20066;-65
2023/12/22 01:56:24;;;;;;;20.15;5.07;;;11.30;99.90;;;;;;4249467;27;20043;-65
2023/12/22 01:58:28;;;;;;;26.48;5.10;;;11.40;99.90;;;;;;4249179;27;20039;-65
2023/12/22 02:00:30;;;;;;;25.25;4.82;;;11.30;99.90;;;;;;4250091;27;20043;-70
2023/12/22 02:02:32;;;;;;;21.27;5.15;;;11.30;99.90;;;;;;4251044;27;20406;-65
2023/12/22 02:04:34;;;;;;;25.20;5.53;;;11.30;99.90;;;;;;4249408;27;20440;-65
2023/12/22 02:06:37;;;;;;;18.73;4.22;;;11.30;99.90;;;;;;4249756;27;20451;-64
2023/12/22 02:08:40;;;;;;;25.42;5.15;;;11.30;99.90;;;;;;4249494;27;20092;-65
2023/12/22 02:10:42;;;;;;;21.95;4.40;;;11.30;99.90;;;;;;4231367;28;20043;-64
2023/12/22 02:12:46;;;;;;;20.13;4.53;;;11.40;99.90;;;;;;4248894;27;20220;-64
2023/12/22 02:14:49;;;;;;;26.08;4.80;;;11.40;99.90;;;;;;4249349;27;20040;-65
2023/12/22 02:16:55;;;;;;;21.52;4.28;;;11.40;99.90;;;;;;4248955;27;20063;-64
2023/12/22 02:19:04;;;;;;;18.10;4.80;;;11.40;99.90;;;;;;4249335;27;20047;-65
2023/12/22 02:21:06;;;;;;;19.85;4.55;;;11.40;99.90;;;;;;4262263;27;20042;-65
2023/12/22 02:23:09;;;;;;;17.08;3.85;;;11.40;99.90;;;;;;4266355;27;20604;-64
2023/12/22 02:25:11;;;;;;;21.90;4.75;;;11.40;99.90;;;;;;4266174;27;20117;-65
2023/12/22 02:27:22;;;;;;;21.45;4.88;;;11.40;99.90;;;;;;4247623;27;20517;-65
2023/12/22 02:29:26;;;;;;;18.33;4.80;;;11.40;99.90;;;;;;4266119;27;20549;-64
2023/12/22 02:31:36;;;;;;;19.58;4.18;;;11.30;99.90;;;;;;4266094;27;20046;-65
2023/12/22 02:33:41;;;;;;;22.67;4.28;;;11.40;99.90;;;;;;4266323;27;20122;-65
2023/12/22 02:35:47;;;;;;;21.92;4.07;;;11.40;99.90;;;;;;4266187;27;20497;-65
2023/12/22 02:37:50;;;;;;;22.20;5.00;;;11.40;99.90;;;;;;4266132;27;20490;-65
2023/12/22 02:39:56;;;;;;;14.48;4.72;;;11.40;99.90;;;;;;4266492;27;20069;-67
2023/12/22 02:41:58;;;;;;;22.10;4.90;;;11.40;99.90;;;;;;4265865;27;20138;-65
2023/12/22 02:44:01;;;;;;;17.88;5.22;;;11.40;99.90;;;;;;4266284;27;20053;-67
2023/12/22 02:46:03;;;;;;;17.50;4.50;;;11.40;99.90;;;;;;4266227;27;20542;-65
2023/12/22 02:48:08;;;;;;;24.85;5.35;;;11.40;99.90;;;;;;4249827;27;20065;-66
2023/12/22 02:50:11;;;;;;;19.52;4.95;;;11.30;99.90;;;;;;4267690;27;20087;-65
2023/12/22 02:52:13;;;;;;;20.52;4.95;;;11.40;99.90;;;;;;4265797;27;20439;-64
2023/12/22 02:54:15;;;;;;;16.20;3.80;;;11.40;99.90;;;;;;4265964;27;20050;-65
2023/12/22 02:56:19;;;;;;;18.40;4.35;;;11.40;99.90;;;;;;4266108;27;20414;-69
2023/12/22 02:58:21;;;;;;;22.83;4.90;;;11.40;99.90;;;;;;4266151;27;20046;-65
2023/12/22 03:00:23;;;;;;;18.88;4.75;;;11.40;99.90;;;;;;4266278;27;20051;-64
2023/12/22 03:02:25;;;;;;;19.23;4.60;;;11.40;99.90;;;;;;4265594;27;20130;-65
2023/12/22 03:04:27;;;;;;;18.13;4.07;;;11.40;99.90;;;;;;4266058;27;20058;-64
2023/12/22 03:06:30;;;;;;;17.80;3.92;;;11.40;99.90;;;;;;4247260;27;20050;-64
2023/12/22 03:08:32;;;;;;;19.75;3.85;;;11.40;99.90;;;;;;4265714;27;20366;-68
2023/12/22 03:10:34;;;;;;;19.08;4.20;;;11.40;99.90;;;;;;4265421;27;20470;-64
2023/12/22 03:12:37;;;;;;;18.10;4.00;;;11.40;99.90;;;;;;4265664;27;20046;-64
2023/12/22 03:14:39;;;;;;;16.70;4.30;;;11.40;99.90;;;;;;4265395;27;20057;-64
2023/12/22 03:16:41;;;;;;;18.00;4.40;;;11.40;99.90;;;;;;4247344;27;20405;-64
2023/12/22 03:18:44;;;;;;;20.58;4.53;;;11.50;99.90;;;;;;4247143;27;20043;-64
2023/12/22 03:20:46;;;;;;;15.55;3.85;;;11.50;99.90;;;;;;4246482;27;20483;-64
2023/12/22 03:22:48;;;;;;;20.98;4.07;;;11.50;99.90;;;;;;4247327;27;20049;-64
2023/12/22 03:24:50;;;;;;;20.05;4.18;;;11.50;99.90;;;;;;4265293;27;20038;-62
2023/12/22 03:26:52;;;;;;;24.40;4.90;;;11.50;99.90;;;;;;4265305;27;20121;-65
2023/12/22 03:28:56;;;;;;;22.33;4.78;;;11.50;99.90;;;;;;4265407;27;20081;-64
2023/12/22 03:30:58;;;;;;;21.25;4.45;;;11.50;99.90;;;;;;4265536;27;20077;-64
2023/12/22 03:33:00;;;;;;;17.83;4.38;;;11.60;99.90;;;;;;4265529;27;20095;-63
2023/12/22 03:35:03;;;;;;;14.50;3.80;;;11.50;99.90;;;;;;4265224;27;20054;-64
2023/12/22 03:37:05;;;;;;;16.77;3.35;;;11.50;99.90;;;;;;4265312;27;20051;-64
2023/12/22 03:39:07;;;;;;;17.73;3.65;;;11.50;99.90;;;;;;4265054;27;20054;-65
2023/12/22 03:41:09;;;;;;;18.35;3.78;;;11.50;99.90;;;;;;4265639;27;20047;-65
2023/12/22 03:43:11;;;;;;;18.48;4.35;;;11.50;99.90;;;;;;4266099;27;20078;-64
2023/12/22 03:45:14;;;;;;;15.45;3.45;;;11.50;99.90;;;;;;4265820;27;20509;-65
2023/12/22 03:47:17;;;;;;;16.70;4.43;;;11.50;99.90;;;;;;4265477;27;20042;-65
2023/12/22 03:49:20;;;;;;;22.20;4.40;;;11.60;99.90;;;;;;4265268;27;20042;-64
2023/12/22 03:51:22;;;;;;;17.40;4.90;;;11.60;99.90;;;;;;4265159;27;20137;-65
2023/12/22 03:53:24;;;;;;;18.70;4.10;;;11.60;99.90;;;;;;4246305;27;20077;-66
2023/12/22 03:55:26;;;;;;;17.48;4.45;;;11.60;99.90;;;;;;4265391;27;20134;-65
2023/12/22 03:57:28;;;;;;;21.05;5.00;;;11.60;99.90;;;;;;4265337;27;20386;-67
2023/12/22 03:59:30;;;;;;;18.13;4.00;;;11.60;99.90;;;;;;4264945;27;20049;-64
2023/12/22 04:01:34;;;;;;;16.95;4.22;;;11.60;99.90;;;;;;4265491;27;20043;-65
2023/12/22 04:03:36;;;;;;;18.55;4.30;;;11.60;99.90;;;;;;4265060;27;20122;-64
2023/12/22 04:05:38;;;;;;;25.48;5.45;;;11.60;99.90;;;;;;4264882;27;20696;-64
2023/12/22 04:07:40;;;;;;;20.92;4.25;;;11.60;99.90;;;;;;4264965;27;20297;-64
2023/12/22 04:09:42;;;;;;;21.80;4.82;;;11.60;99.90;;;;;;4265019;27;20121;-65
2023/12/22 04:11:44;;;;;;;25.55;4.35;;;11.60;99.90;;;;;;4265019;27;20508;-64
2023/12/22 04:13:46;;;;;;;21.27;4.13;;;11.60;99.90;;;;;;4264806;27;20042;-65
2023/12/22 04:15:48;;;;;;;17.73;4.50;;;11.70;99.90;;;;;;4264645;27;20039;-64
2023/12/22 04:17:51;;;;;;;18.75;5.22;;;11.70;99.90;;;;;;4264768;27;20050;-65
2023/12/22 04:19:54;;;;;;;15.43;4.20;;;11.70;99.90;;;;;;4264761;27;20057;-65
2023/12/22 04:21:56;;;;;;;19.48;3.80;;;11.70;99.90;;;;;;4264172;27;20042;-65
2023/12/22 04:23:58;;;;;;;20.05;3.80;;;11.70;99.90;;;;;;4264699;27;20046;-65
2023/12/22 04:26:01;;;;;;;17.20;3.80;;;11.70;99.90;;;;;;4264879;27;20053;-65
2023/12/22 04:28:04;;;;;;;20.60;4.75;;;11.70;99.90;;;;;;4265347;27;20039;-65
2023/12/22 04:30:07;;;;;;;16.77;3.33;;;11.60;99.90;;;;;;4268326;27;20066;-64
2023/12/22 04:32:09;;;;;;;14.45;2.78;;;11.50;99.90;;;;;;4268025;27;20428;-64
2023/12/22 04:34:14;;;;;;;14.65;3.25;;;11.40;99.90;;;;;;4268325;27;20492;-65
2023/12/22 04:36:16;;;;;;;13.98;3.20;;;11.40;99.90;;;;;;4268066;27;20058;-65
2023/12/22 04:38:18;;;;;;;17.13;3.35;;;11.30;99.90;;;;;;4268937;27;20251;-65
2023/12/22 04:40:20;;;;;;;16.90;2.95;;;11.30;99.90;;;;;;4269430;27;20039;-65
2023/12/22 04:42:22;;;;;;;12.20;2.70;;;11.20;99.90;;;;;;4268294;27;20066;-65
2023/12/22 04:44:25;;;;;;;9.95;2.55;;;11.30;99.90;;;;;;4267866;27;20397;-65
2023/12/22 04:46:27;;;;;;;13.82;2.67;;;11.20;99.90;;;;;;4268008;27;20084;-65
2023/12/22 04:48:29;;;;;;;11.82;2.13;;;11.20;99.90;;;;;;4268011;27;20474;-64
2023/12/22 04:50:32;;;;;;;14.23;2.60;;;11.10;99.90;;;;;;4267825;27;20047;-64
2023/12/22 04:52:34;;;;;;;15.98;3.15;;;11.10;99.90;;;;;;4267318;27;20208;-65
2023/12/22 04:54:36;;;;;;;15.10;2.88;;;11.00;99.90;;;;;;4267671;27;20499;-64
2023/12/22 04:56:39;;;;;;;19.30;3.35;;;11.00;99.90;;;;;;4268458;27;20043;-64
2023/12/22 04:58:41;;;;;;;12.23;2.83;;;11.00;99.90;;;;;;4268276;27;20042;-64
2023/12/22 05:00:43;;;;;;;18.10;2.58;;;11.00;99.90;;;;;;4267959;27;20474;-64
2023/12/22 05:02:45;;;;;;;13.18;2.75;;;11.00;99.90;;;;;;4267597;27;20055;-66
2023/12/22 05:04:47;;;;;;;14.18;3.08;;;10.90;99.90;;;;;;4267692;27;20489;-68
2023/12/22 05:06:51;;;;;;;12.40;2.88;;;10.90;99.90;;;;;;4266888;27;20050;-64
2023/12/22 05:08:53;;;;;;;13.63;2.90;;;10.90;99.90;;;;;;4267399;27;20053;-64
2023/12/22 05:10:55;;;;;;;13.43;3.53;;;10.90;99.90;;;;;;4267388;27;20046;-64
2023/12/22 05:12:57;;;;;;;12.88;3.30;;;10.90;99.90;;;;;;4267629;27;20058;-64
2023/12/22 05:14:59;;;;;;;15.27;3.33;;;11.00;99.90;;;;;;4268096;27;20043;-65
2023/12/22 05:17:01;;;;;;;15.10;3.35;;;11.00;99.90;;;;;;4268009;27;20406;-69
2023/12/22 05:19:03;;;;;;;12.68;2.83;;;11.00;99.90;;;;;;4268449;27;20111;-65
2023/12/22 05:21:05;;;;;;;11.15;3.03;;;11.00;99.90;;;;;;4267130;27;20060;-64
2023/12/22 05:23:09;;;;;;;15.50;3.47;;;11.00;99.90;;;;;;4267812;27;20457;-63
2023/12/22 05:25:13;;;;;;;11.90;2.95;;;11.00;99.90;;;;;;4267302;27;20140;-67
2023/12/22 05:27:15;;;;;;;10.20;3.15;;;11.00;99.90;;;;;;4267770;27;20458;-64
2023/12/22 05:29:17;;;;;;;15.65;3.55;;;11.00;99.90;;;;;;4267279;27;20085;-65
2023/12/22 05:31:19;;;;;;;14.27;2.97;;;11.00;99.90;;;;;;4267428;27;20074;-64
2023/12/22 05:33:21;;;;;;;14.38;3.00;;;10.90;99.90;;;;;;4266882;27;20378;-65
2023/12/22 05:35:23;;;;;;;11.57;2.90;;;10.90;99.90;;;;;;4266402;27;20050;-65
2023/12/22 05:37:25;;;;;;;16.25;3.03;;;11.00;99.90;;;;;;4266750;27;20482;-65
2023/12/22 05:39:29;;;;;;;20.73;3.85;;;11.00;99.90;;;;;;4265750;27;20072;-64
2023/12/22 05:41:36;;;;;;;13.10;3.30;;;11.00;99.90;;;;;;4266789;27;20042;-65
2023/12/22 05:43:38;;;;;;;8.63;2.65;;;11.00;99.90;;;;;;4266927;27;20051;-64
2023/12/22 05:45:40;;;;;;;18.30;3.20;;;11.00;99.90;;;;;;4267013;27;20122;-64
2023/12/22 05:47:42;;;;;;;11.95;2.65;;;11.00;99.90;;;;;;4266940;27;20067;-64
2023/12/22 05:49:44;;;;;;;10.73;2.25;;;11.00;99.90;;;;;;4266581;27;20131;-64
2023/12/22 05:51:46;;;;;;;11.63;2.47;;;11.00;99.90;;;;;;4266779;27;20073;-64
2023/12/22 05:53:48;;;;;;;13.75;2.67;;;11.00;99.90;;;;;;4266758;27;20042;-65
2023/12/22 05:55:52;;;;;;;10.02;2.17;;;11.00;99.90;;;;;;4266659;27;20075;-63
2023/12/22 05:57:55;;;;;;;8.05;1.70;;;11.10;99.90;;;;;;4267346;27;20047;-63
2023/12/22 05:59:57;;;;;;;11.05;2.72;;;11.10;99.90;;;;;;4267874;27;20141;-64
2023/12/22 06:01:59;;;;;;;11.20;2.50;;;11.10;99.90;;;;;;4267451;27;20083;-66
2023/12/22 06:04:01;;;;;;;8.65;2.47;;;11.10;99.90;;;;;;4248877;27;20490;-64
2023/12/22 06:06:04;;;;;;;8.40;1.98;;;11.10;99.90;;;;;;4268198;27;20047;-64
2023/12/22 06:08:07;;;;;;;9.43;1.70;;;11.20;99.90;;;;;;4268308;27;20094;-66
2023/12/22 06:10:09;;;;;;;10.93;2.15;;;11.20;99.90;;;;;;4268363;27;20049;-65
2023/12/22 06:12:14;;;;;;;11.60;2.22;;;11.10;99.90;;;;;;4267216;27;20042;-63
2023/12/22 06:14:16;;;;;;;8.02;2.42;;;11.20;99.90;;;;;;4248634;27;20062;-65
2023/12/22 06:16:18;;;;;;;10.38;2.67;;;11.20;99.90;;;;;;4266424;27;20506;-63
2023/12/22 06:18:20;;;;;;;9.52;2.15;;;11.20;99.90;;;;;;4247850;27;20136;-63
2023/12/22 06:20:22;;;;;;;10.45;2.13;;;11.20;99.90;;;;;;4248489;27;20127;-64
2023/12/22 06:22:25;;;;;;;6.70;2.20;;;11.20;99.90;;;;;;4266984;27;20042;-65
2023/12/22 06:24:27;;;;;;;11.32;2.30;;;11.20;99.90;;;;;;4266861;27;20417;-65
2023/12/22 06:26:29;;;;;;;9.02;1.88;;;11.20;99.90;;;;;;4266915;27;20050;-65
2023/12/22 06:28:32;;;;;;;10.15;2.35;;;11.20;99.90;;;;;;4266757;27;20046;-64
2023/12/22 06:30:35;;;;;;;8.65;2.15;;;11.20;99.90;;;;;;4267212;27;20054;-65
2023/12/22 06:32:39;;;;;;;16.05;2.30;;;11.20;99.90;;;;;;4266488;27;20125;-65
2023/12/22 06:34:42;;;;;;;11.38;2.22;;;11.20;99.90;;;;;;4266233;27;20035;-65
2023/12/22 06:36:44;;;;;;;8.73;2.17;;;11.20;99.90;;;;;;4266073;27;20501;-65
2023/12/22 06:38:46;;;;;;;7.53;1.98;;;11.20;99.90;;;;;;4265935;27;20049;-65
2023/12/22 06:40:48;;;;;;;10.55;2.33;;;11.20;99.90;;;;;;4266112;27;20043;-65
2023/12/22 06:42:50;;;;;;;10.38;1.77;;;11.20;99.90;;;;;;4265606;27;20050;-65
2023/12/22 06:44:53;;;;;;;13.27;2.63;;;11.20;99.90;;;;;;4265979;27;20054;-65
2023/12/22 06:46:55;;;;;;;13.68;2.90;;;11.20;99.90;;;;;;4265637;27;20129;-65
2023/12/22 06:48:58;;;;;;;10.35;2.63;;;11.20;99.90;;;;;;4265958;27;20047;-64
2023/12/22 06:51:00;;;;;;;9.00;1.85;;;11.20;99.90;;;;;;4265637;27;20286;-65
2023/12/22 06:53:03;;;;;;;13.05;2.38;;;11.20;99.90;;;;;;4265933;27;20548;-65
2023/12/22 06:55:19;;;;;;;8.32;2.35;;;11.20;99.90;;;;;;4265803;27;20432;-65
2023/12/22 06:57:22;;;;;;;10.57;2.83;;;11.20;99.90;;;;;;4265548;27;20043;-65
2023/12/22 06:59:26;;;;;;;13.27;2.67;;;11.20;99.90;;;;;;4265547;27;20046;-65
2023/12/22 07:01:32;;;;;;;18.55;2.58;;;11.20;99.90;;;;;;4265241;27;20050;-67
2023/12/22 07:03:37;;;;;;;;;;;11.20;99.90;;;;;;4266286;27;20046;-65
2023/12/22 07:05:39;;;;;;;9.32;2.10;;;11.20;99.90;;;;;;4265616;27;19918;-65
2023/12/22 07:07:41;;;;;;;10.20;2.25;;;11.10;99.90;;;;;;4265478;27;20047;-66
2023/12/22 07:09:43;;;;;;;9.88;2.40;;;11.10;99.90;;;;;;4265490;27;20137;-65
2023/12/22 07:11:46;;;;;;;12.30;3.08;;;11.20;99.90;;;;;;4265576;27;20042;-64
2023/12/22 07:13:48;;;;;;;13.00;2.30;;;11.20;99.90;;;;;;4265505;27;20133;-64
2023/12/22 07:15:50;;;;;;;11.30;2.67;;;11.10;99.90;;;;;;4246603;27;20050;-65
2023/12/22 07:17:55;;;;;;;11.57;3.22;;;11.10;99.90;;;;;;4265178;27;20125;-65
2023/12/22 07:19:57;;;;;;;7.57;1.90;;;11.10;99.90;;;;;;4265248;27;20038;-65
2023/12/22 07:22:02;;;;;;;9.75;2.20;;;11.00;99.90;;;;;;4265292;27;20065;-66
2023/12/22 07:24:05;;;;;;;11.68;2.38;;;11.10;99.90;;;;;;4265345;27;20122;-64
2023/12/22 07:26:07;;;;;;;12.73;2.63;;;11.10;99.90;;;;;;4265247;27;20121;-64
2023/12/22 07:28:09;;;;;;;11.05;2.05;;;11.00;99.90;;;;;;4265337;27;20046;-67
2023/12/22 07:30:15;;;;;;;8.90;2.70;;;11.00;99.90;;;;;;4265162;27;20046;-64
2023/12/22 07:32:17;;;;;;;12.15;2.30;;;11.10;99.90;;;;;;4264869;27;20057;-65
2023/12/22 07:34:22;;;;;;;11.15;2.70;;;11.00;99.90;;;;;;4265065;27;20042;-65
2023/12/22 07:36:24;;;;;;;9.18;1.98;;;11.00;99.90;;;;;;4264827;27;20472;-65
2023/12/22 07:38:28;;;;;;;9.00;1.88;;;11.00;99.90;;;;;;4265443;27;20043;-64
2023/12/22 07:40:30;;;;;;;12.30;2.35;;;11.00;99.90;;;;;;4265135;27;20125;-64
2023/12/22 07:42:32;;;;;;;9.63;2.65;;;11.00;99.90;;;;;;4265055;27;20054;-65
2023/12/22 07:44:34;;;;;;;10.32;2.38;;;11.00;99.90;;;;;;4265333;27;20441;-65
2023/12/22 07:46:36;;;;;;;9.07;2.08;;;11.10;99.90;;;;;;4264730;27;20055;-65
2023/12/22 07:48:38;;;;;;;9.30;2.03;;;11.10;99.90;;;;;;4265234;27;20042;-65
2023/12/22 07:50:42;;;;;;;11.32;2.10;;;11.10;99.90;;;;;;4264874;27;20054;-63
2023/12/22 07:52:44;;;;;;;13.40;2.60;;;11.00;99.90;;;;;;4264756;27;20046;-69
2023/12/22 07:54:47;;;;;;;8.65;2.22;;;11.00;99.90;;;;;;4264888;27;20046;-65
2023/12/22 07:56:49;;;;;;;8.25;2.13;;;11.10;99.90;;;;;;4265155;27;20042;-65
2023/12/22 07:58:51;;;;;;;12.07;2.35;;;11.10;99.90;;;;;;4264924;27;20038;-64
2023/12/22 08:00:53;;;;;;;9.65;2.42;;;11.10;99.90;;;;;;4264636;27;20042;-66
2023/12/22 08:02:56;;;;;;;12.93;2.58;;;11.20;99.90;;;;;;4247033;27;20043;-65
2023/12/22 08:04:58;;;;;;;9.25;2.20;;;11.20;99.90;;;;;;4268514;27;20417;-65
2023/12/22 08:07:02;;;;;;;10.80;2.63;;;11.20;99.90;;;;;;4268297;27;20047;-65
2023/12/22 08:09:04;;;;;;;10.27;2.53;;;11.20;99.90;;;;;;4268444;27;20051;-65
2023/12/22 08:11:07;;;;;;;9.60;2.40;;;11.20;99.90;;;;;;4268582;27;20438;-65
2023/12/22 08:13:09;;;;;;;9.15;2.05;;;11.20;99.90;;;;;;4268245;27;20047;-65
2023/12/22 08:15:11;;;;;;;5.95;2.08;;;11.10;99.90;;;;;;4267959;27;20054;-65
2023/12/22 08:17:23;;;;;;;8.82;2.05;;;11.10;99.90;;;;;;4268372;27;20042;-66
2023/12/22 08:19:25;;;;;;;5.13;1.70;;;11.10;99.90;;;;;;4268460;27;20428;-64
2023/12/22 08:21:31;;;;;;;2.60;1.05;;;11.10;99.90;;;;;;4268478;27;20539;-64
2023/12/22 08:23:46;;;;;;;8.60;1.50;;;11.10;99.90;;;;;;4268519;27;20496;-64
2023/12/22 08:25:58;;;;;;;3.88;1.20;;;11.20;99.90;;;;;;4268154;27;20062;-65
2023/12/22 08:28:01;;;;;;;2.92;1.10;;;11.20;99.90;;;;;;4267904;27;20050;-65
2023/12/22 08:30:03;;;;;;;4.32;1.20;;;11.20;99.90;;;;;;4267190;27;20454;-65
2023/12/22 08:32:06;;;;;;;5.70;1.35;;;11.30;99.90;;;;;;4267940;27;20042;-65
2023/12/22 08:34:08;;;;;;;3.25;1.20;;;11.30;99.90;;;;;;4268086;27;20489;-65
2023/12/22 08:36:10;;;;;;;4.70;1.10;;;11.40;99.90;;;;;;4268104;27;20078;-65
2023/12/22 08:38:13;;;;;;;5.65;1.23;;;11.40;99.90;;;;;;4267743;27;20081;-64
2023/12/22 08:40:17;;;;;;;6.43;1.40;;;11.30;99.90;;;;;;4267887;27;20386;-65
2023/12/22 08:42:19;;;;;;;6.13;1.95;;;11.30;99.90;;;;;;4267894;27;20035;-65
2023/12/22 08:44:21;;;;;;;3.55;1.42;;;11.30;99.90;;;;;;4267998;27;20043;-65
2023/12/22 08:46:26;;;;;;;5.78;1.98;;;11.40;99.90;;;;;;4267946;27;20125;-65
2023/12/22 08:48:28;;;;;;;5.43;1.33;;;11.40;99.90;;;;;;4267818;27;20122;-65
2023/12/22 08:50:30;;;;;;;6.43;2.15;;;11.40;99.90;;;;;;4249381;27;20051;-65
2023/12/22 08:52:33;;;;;;;5.20;1.63;;;11.40;99.90;;;;;;4267589;27;20042;-65
2023/12/22 08:54:35;;;;;;;6.80;1.65;;;11.40;99.90;;;;;;4268361;27;20105;-65
2023/12/22 08:56:38;;;;;;;5.82;1.45;;;11.40;99.90;;;;;;4267724;27;20047;-65
2023/12/22 08:58:40;;;;;;;10.25;1.75;;;11.50;99.90;;;;;;4267147;27;20492;-65
2023/12/22 09:00:43;;;;;;;11.98;2.25;;;11.40;99.90;;;;;;4267528;27;20042;-65
2023/12/22 09:02:45;;;;;;;8.07;1.88;;;11.50;99.90;;;;;;4267372;27;20047;-65
2023/12/22 09:04:47;;;;;;;7.22;2.15;;;11.50;99.90;;;;;;4267475;27;20049;-65
2023/12/22 09:06:50;;;;;;;5.93;2.17;;;11.60;99.90;;;;;;4267427;27;20047;-65
2023/12/22 09:08:52;;;;;;;8.40;1.80;;;11.60;99.90;;;;;;4267287;27;20508;-64
2023/12/22 09:10:55;;;;;;;7.72;1.50;;;11.50;99.90;;;;;;4267247;27;20046;-64
2023/12/22 09:13:00;;;;;;;12.15;2.15;;;11.60;99.90;;;;;;4267199;27;20398;-65
2023/12/22 09:15:03;;;;;;;10.43;2.60;;;11.60;99.90;;;;;;4266979;27;20047;-64
2023/12/22 09:17:06;;;;;;;6.38;2.03;;;11.50;99.90;;;;;;4267302;27;20070;-65
2023/12/22 09:19:08;;;;;;;9.57;2.63;;;11.40;99.90;;;;;;4267386;27;20043;-66
2023/12/22 09:21:10;;;;;;;8.90;2.10;;;11.40;99.90;;;;;;4267203;27;20046;-64
2023/12/22 09:23:12;;;;;;;10.25;2.22;;;11.50;99.90;;;;;;4267659;27;20047;-65
2023/12/22 09:25:14;;;;;;;6.00;1.90;;;11.50;99.90;;;;;;4267952;27;20446;-65
2023/12/22 09:27:16;;;;;;;9.52;2.28;;;11.50;99.90;;;;;;4267231;27;20046;-65
2023/12/22 09:29:21;;;;;;;6.85;2.30;;;11.50;99.90;;;;;;4267359;27;20473;-65
2023/12/22 09:31:23;;;;;;;;;;;11.60;99.90;;;;;;4249582;27;20569;-66
2023/12/22 09:33:25;;;;;;;7.18;2.03;;;11.60;99.90;;;;;;4267192;27;20293;-65
2023/12/22 09:35:28;;;;;;;11.95;2.55;;;11.60;99.90;;;;;;4267214;27;20077;-65
2023/12/22 09:37:30;;;;;;;9.18;1.73;;;11.70;99.90;;;;;;4266673;27;20055;-66
2023/12/22 09:39:32;;;;;;;13.60;2.45;;;11.70;99.90;;;;;;4266869;27;20455;-66
2023/12/22 09:41:34;;;;;;;9.50;2.20;;;11.80;99.90;;;;;;4266429;27;20046;-65
2023/12/22 09:43:39;;;;;;;10.05;2.55;;;11.80;99.90;;;;;;4266910;27;20103;-65
2023/12/22 09:45:43;;;;;;;10.35;2.22;;;11.80;99.90;;;;;;4266658;27;20051;-66
2023/12/22 09:47:45;;;;;;;12.07;2.20;;;11.80;99.90;;;;;;4266876;27;20053;-66
2023/12/22 09:49:49;;;;;;;10.38;2.40;;;11.90;99.90;;;;;;4266629;27;20061;-66
2023/12/22 09:51:53;;;;;;;8.25;2.03;;;12.00;99.90;;;;;;4266866;27;20055;-66
2023/12/22 09:53:56;;;;;;;9.23;2.40;;;11.90;99.90;;;;;;4266677;27;20129;-66
2023/12/22 09:55:59;;;;;;;7.82;2.00;;;12.00;99.90;;;;;;4266374;27;20047;-66
2023/12/22 09:58:02;;;;;;;6.47;1.90;;;11.90;99.90;;;;;;4266591;27;20047;-66
2023/12/22 10:00:07;;;;;;;10.65;2.15;;;12.00;99.90;;;;;;4266672;27;20043;-66
2023/12/22 10:02:11;;;;;;;4.72;1.55;;;11.90;99.90;;;;;;4266680;27;20043;-65
2023/12/22 10:04:14;;;;;;;8.50;1.90;;;11.90;99.90;;;;;;4266650;27;20469;-65
2023/12/22 10:06:19;;;;;;;8.23;1.90;;;11.90;99.90;;;;;;4266582;27;20455;-66
2023/12/22 10:08:22;;;;;;;10.70;2.65;;;11.90;99.90;;;;;;4266653;27;20481;-65
2023/12/22 10:10:25;;;;;;;8.27;1.88;;;11.90;99.90;;;;;;4266222;27;20391;-65
2023/12/22 10:12:30;;;;;;;7.60;2.05;;;12.00;99.90;;;;;;4266281;27;20085;-65
2023/12/22 10:14:35;;;;;;;10.10;2.05;;;12.00;99.90;;;;;;4266564;27;20438;-65
2023/12/22 10:16:41;;;;;;;9.63;1.88;;;12.00;99.90;;;;;;4266278;27;20052;-65
2023/12/22 10:18:45;;;;;;;9.45;1.83;;;12.00;99.90;;;;;;4266329;27;20060;-66
2023/12/22 10:20:48;;;;;;;5.45;1.80;;;12.00;99.90;;;;;;4266191;27;20043;-65
2023/12/22 10:22:50;;;;;;;10.55;2.33;;;12.10;99.90;;;;;;4266348;27;20054;-66
2023/12/22 10:24:52;;;;;;;9.32;2.05;;;12.10;99.90;;;;;;4265871;27;20425;-66
2023/12/22 10:26:54;;;;;;;8.57;2.20;;;12.10;99.90;;;;;;4265485;27;20046;-66
2023/12/22 10:28:58;;;;;;;8.55;1.88;;;12.10;99.90;;;;;;4265962;27;20135;-66
2023/12/22 10:31:06;;;;;;;8.05;2.28;;;12.10;99.90;;;;;;4266184;27;20107;-64
2023/12/22 10:33:08;;;;;;;11.32;2.58;;;12.20;99.90;;;;;;4265995;27;20390;-64
2023/12/22 10:35:12;;;;;;;8.60;1.92;;;12.20;99.90;;;;;;4266149;27;20039;-66